sensor_id;sensor_type;location;lat;lon;timestamp;P1;durP1;ratioP1;P2;durP2;ratioP2
39094;SDS011;24840;47.508;19.376;2022-09-21T00:00:04;12.95;;;7.97;;
39094;SDS011;24840;47.508;19.376;2022-09-21T00:02:40;11.50;;;7.43;;
39094;SDS011;24840;47.508;19.376;2022-09-21T00:05:33;10.43;;;7.10;;
39094;SDS011;24840;47.508;19.376;2022-09-21T00:14:37;12.43;;;7.07;;
39094;SDS011;24840;47.508;19.376;2022-09-21T00:17:13;7.18;;;5.07;;
39094;SDS011;24840;47.508;19.376;2022-09-21T00:19:40;7.18;;;5.38;;
39094;SDS011;24840;47.508;19.376;2022-09-21T00:22:22;10.30;;;6.10;;
39094;SDS011;24840;47.508;19.376;2022-09-21T00:24:52;8.10;;;5.00;;
39094;SDS011;24840;47.508;19.376;2022-09-21T00:59:50;6.88;;;3.75;;
39094;SDS011;24840;47.508;19.376;2022-09-21T01:02:53;7.20;;;3.50;;
39094;SDS011;24840;47.508;19.376;2022-09-21T01:09:12;7.55;;;3.45;;
39094;SDS011;24840;47.508;19.376;2022-09-21T01:16:09;3.83;;;2.85;;
39094;SDS011;24840;47.508;19.376;2022-09-21T01:30:37;9.38;;;2.88;;
39094;SDS011;24840;47.508;19.376;2022-09-21T01:34:07;5.88;;;2.72;;
39094;SDS011;24840;47.508;19.376;2022-09-21T01:36:48;3.38;;;2.40;;
39094;SDS011;24840;47.508;19.376;2022-09-21T02:03:46;6.60;;;2.65;;
39094;SDS011;24840;47.508;19.376;2022-09-21T02:06:19;3.10;;;1.88;;
39094;SDS011;24840;47.508;19.376;2022-09-21T02:22:43;2.78;;;1.60;;
39094;SDS011;24840;47.508;19.376;2022-09-21T02:29:36;6.20;;;1.70;;
39094;SDS011;24840;47.508;19.376;2022-09-21T02:32:39;3.92;;;1.48;;
39094;SDS011;24840;47.508;19.376;2022-09-21T02:42:08;2.60;;;1.35;;
39094;SDS011;24840;47.508;19.376;2022-09-21T02:51:36;3.53;;;1.52;;
39094;SDS011;24840;47.508;19.376;2022-09-21T02:54:09;2.20;;;0.95;;
39094;SDS011;24840;47.508;19.376;2022-09-21T02:56:47;2.88;;;1.20;;
39094;SDS011;24840;47.508;19.376;2022-09-21T03:06:04;5.57;;;1.52;;
39094;SDS011;24840;47.508;19.376;2022-09-21T04:12:25;2.38;;;1.23;;
39094;SDS011;24840;47.508;19.376;2022-09-21T04:14:52;1.77;;;1.25;;
39094;SDS011;24840;47.508;19.376;2022-09-21T04:17:18;1.98;;;1.17;;
39094;SDS011;24840;47.508;19.376;2022-09-21T04:19:44;3.15;;;1.90;;
39094;SDS011;24840;47.508;19.376;2022-09-21T04:22:11;1.58;;;0.90;;
39094;SDS011;24840;47.508;19.376;2022-09-21T04:24:38;3.08;;;1.55;;
39094;SDS011;24840;47.508;19.376;2022-09-21T04:27:07;2.35;;;1.20;;
39094;SDS011;24840;47.508;19.376;2022-09-21T04:32:35;2.10;;;1.50;;
39094;SDS011;24840;47.508;19.376;2022-09-21T04:35:01;2.42;;;1.13;;
39094;SDS011;24840;47.508;19.376;2022-09-21T04:37:28;4.20;;;1.58;;
39094;SDS011;24840;47.508;19.376;2022-09-21T04:39:55;2.60;;;1.30;;
39094;SDS011;24840;47.508;19.376;2022-09-21T04:42:21;1.88;;;1.02;;
39094;SDS011;24840;47.508;19.376;2022-09-21T04:44:48;1.95;;;1.13;;
39094;SDS011;24840;47.508;19.376;2022-09-21T04:47:15;2.70;;;1.30;;
39094;SDS011;24840;47.508;19.376;2022-09-21T04:49:43;2.60;;;1.55;;
39094;SDS011;24840;47.508;19.376;2022-09-21T04:52:10;2.50;;;1.30;;
39094;SDS011;24840;47.508;19.376;2022-09-21T04:54:36;2.35;;;1.38;;
39094;SDS011;24840;47.508;19.376;2022-09-21T04:57:02;2.95;;;1.45;;
39094;SDS011;24840;47.508;19.376;2022-09-21T04:59:28;4.57;;;1.65;;
39094;SDS011;24840;47.508;19.376;2022-09-21T05:01:54;2.70;;;1.05;;
39094;SDS011;24840;47.508;19.376;2022-09-21T05:04:20;4.72;;;1.02;;
39094;SDS011;24840;47.508;19.376;2022-09-21T05:06:46;4.32;;;1.52;;
39094;SDS011;24840;47.508;19.376;2022-09-21T05:09:12;1.52;;;1.23;;
39094;SDS011;24840;47.508;19.376;2022-09-21T05:11:56;1.80;;;1.30;;
39094;SDS011;24840;47.508;19.376;2022-09-21T05:14:22;2.08;;;1.20;;
39094;SDS011;24840;47.508;19.376;2022-09-21T05:16:48;5.22;;;1.23;;
39094;SDS011;24840;47.508;19.376;2022-09-21T05:22:04;3.55;;;1.45;;
39094;SDS011;24840;47.508;19.376;2022-09-21T05:24:30;2.50;;;1.52;;
39094;SDS011;24840;47.508;19.376;2022-09-21T05:26:56;1.65;;;1.52;;
39094;SDS011;24840;47.508;19.376;2022-09-21T05:29:22;3.40;;;2.38;;
39094;SDS011;24840;47.508;19.376;2022-09-21T05:31:50;21.75;;;13.35;;
39094;SDS011;24840;47.508;19.376;2022-09-21T05:34:40;13.38;;;7.57;;
39094;SDS011;24840;47.508;19.376;2022-09-21T05:37:34;6.75;;;4.50;;
39094;SDS011;24840;47.508;19.376;2022-09-21T05:40:05;6.40;;;3.78;;
39094;SDS011;24840;47.508;19.376;2022-09-21T05:42:34;4.80;;;3.75;;
39094;SDS011;24840;47.508;19.376;2022-09-21T05:45:00;5.63;;;3.33;;
39094;SDS011;24840;47.508;19.376;2022-09-21T05:47:37;5.05;;;2.90;;
39094;SDS011;24840;47.508;19.376;2022-09-21T05:50:16;6.20;;;2.65;;
39094;SDS011;24840;47.508;19.376;2022-09-21T05:55:55;7.03;;;2.55;;
39094;SDS011;24840;47.508;19.376;2022-09-21T05:58:28;5.18;;;2.70;;
39094;SDS011;24840;47.508;19.376;2022-09-21T06:01:17;16.85;;;3.30;;
39094;SDS011;24840;47.508;19.376;2022-09-21T06:03:45;3.20;;;2.17;;
39094;SDS011;24840;47.508;19.376;2022-09-21T06:06:14;3.75;;;3.15;;
39094;SDS011;24840;47.508;19.376;2022-09-21T06:08:44;6.47;;;4.28;;
39094;SDS011;24840;47.508;19.376;2022-09-21T06:11:10;3.85;;;2.50;;
39094;SDS011;24840;47.508;19.376;2022-09-21T06:13:36;2.42;;;2.03;;
39094;SDS011;24840;47.508;19.376;2022-09-21T06:16:03;2.75;;;2.17;;
39094;SDS011;24840;47.508;19.376;2022-09-21T06:18:29;9.07;;;2.70;;
39094;SDS011;24840;47.508;19.376;2022-09-21T06:20:55;10.93;;;3.70;;
39094;SDS011;24840;47.508;19.376;2022-09-21T06:23:21;3.80;;;3.40;;
39094;SDS011;24840;47.508;19.376;2022-09-21T06:25:51;5.32;;;3.58;;
39094;SDS011;24840;47.508;19.376;2022-09-21T06:28:18;6.10;;;4.18;;
39094;SDS011;24840;47.508;19.376;2022-09-21T06:30:49;5.20;;;4.28;;
39094;SDS011;24840;47.508;19.376;2022-09-21T06:33:16;5.20;;;4.63;;
39094;SDS011;24840;47.508;19.376;2022-09-21T06:35:54;4.22;;;3.55;;
39094;SDS011;24840;47.508;19.376;2022-09-21T06:38:23;5.40;;;3.95;;
39094;SDS011;24840;47.508;19.376;2022-09-21T06:40:50;7.90;;;3.60;;
39094;SDS011;24840;47.508;19.376;2022-09-21T06:43:17;4.30;;;3.40;;
39094;SDS011;24840;47.508;19.376;2022-09-21T06:45:55;5.50;;;3.67;;
39094;SDS011;24840;47.508;19.376;2022-09-21T06:48:28;5.40;;;3.95;;
39094;SDS011;24840;47.508;19.376;2022-09-21T06:51:01;4.85;;;3.47;;
39094;SDS011;24840;47.508;19.376;2022-09-21T06:53:31;3.75;;;3.20;;
39094;SDS011;24840;47.508;19.376;2022-09-21T06:56:05;8.63;;;7.40;;
39094;SDS011;24840;47.508;19.376;2022-09-21T06:58:35;8.57;;;4.53;;
39094;SDS011;24840;47.508;19.376;2022-09-21T07:01:05;5.47;;;3.38;;
39094;SDS011;24840;47.508;19.376;2022-09-21T07:03:34;3.72;;;2.58;;
39094;SDS011;24840;47.508;19.376;2022-09-21T07:08:32;4.03;;;2.80;;
39094;SDS011;24840;47.508;19.376;2022-09-21T07:11:00;6.20;;;2.90;;
39094;SDS011;24840;47.508;19.376;2022-09-21T07:13:27;1.60;;;1.50;;
39094;SDS011;24840;47.508;19.376;2022-09-21T07:15:54;3.90;;;1.83;;
39094;SDS011;24840;47.508;19.376;2022-09-21T07:18:20;4.80;;;1.67;;
39094;SDS011;24840;47.508;19.376;2022-09-21T07:20:46;2.30;;;1.85;;
39094;SDS011;24840;47.508;19.376;2022-09-21T07:23:14;3.17;;;1.50;;
39094;SDS011;24840;47.508;19.376;2022-09-21T07:25:42;1.70;;;1.23;;
39094;SDS011;24840;47.508;19.376;2022-09-21T07:28:10;10.15;;;1.25;;
39094;SDS011;24840;47.508;19.376;2022-09-21T07:30:37;2.05;;;1.13;;
39094;SDS011;24840;47.508;19.376;2022-09-21T07:33:06;3.97;;;1.40;;
39094;SDS011;24840;47.508;19.376;2022-09-21T07:35:33;1.58;;;1.20;;
39094;SDS011;24840;47.508;19.376;2022-09-21T07:38:04;3.63;;;1.60;;
39094;SDS011;24840;47.508;19.376;2022-09-21T07:40:32;1.80;;;1.42;;
39094;SDS011;24840;47.508;19.376;2022-09-21T07:43:02;1.30;;;1.10;;
39094;SDS011;24840;47.508;19.376;2022-09-21T07:45:29;1.40;;;1.20;;
39094;SDS011;24840;47.508;19.376;2022-09-21T07:48:06;1.60;;;1.33;;
39094;SDS011;24840;47.508;19.376;2022-09-21T07:50:37;2.15;;;1.30;;
39094;SDS011;24840;47.508;19.376;2022-09-21T07:53:03;1.20;;;0.95;;
39094;SDS011;24840;47.508;19.376;2022-09-21T07:55:30;2.63;;;1.33;;
39094;SDS011;24840;47.508;19.376;2022-09-21T07:57:57;1.63;;;1.20;;
39094;SDS011;24840;47.508;19.376;2022-09-21T08:00:42;3.17;;;1.50;;
39094;SDS011;24840;47.508;19.376;2022-09-21T08:03:09;2.92;;;1.30;;
39094;SDS011;24840;47.508;19.376;2022-09-21T08:05:36;2.33;;;1.27;;
39094;SDS011;24840;47.508;19.376;2022-09-21T08:08:05;2.08;;;1.02;;
39094;SDS011;24840;47.508;19.376;2022-09-21T08:10:52;2.00;;;0.95;;
39094;SDS011;24840;47.508;19.376;2022-09-21T08:13:20;2.03;;;0.88;;
39094;SDS011;24840;47.508;19.376;2022-09-21T08:15:55;2.38;;;1.95;;
39094;SDS011;24840;47.508;19.376;2022-09-21T08:18:26;2.08;;;0.98;;
39094;SDS011;24840;47.508;19.376;2022-09-21T08:20:53;3.13;;;1.65;;
39094;SDS011;24840;47.508;19.376;2022-09-21T08:23:21;1.50;;;1.20;;
39094;SDS011;24840;47.508;19.376;2022-09-21T08:25:48;1.15;;;0.90;;
39094;SDS011;24840;47.508;19.376;2022-09-21T08:28:15;2.40;;;0.93;;
39094;SDS011;24840;47.508;19.376;2022-09-21T08:30:42;1.98;;;0.90;;
39094;SDS011;24840;47.508;19.376;2022-09-21T08:33:09;1.52;;;0.90;;
39094;SDS011;24840;47.508;19.376;2022-09-21T08:35:35;1.60;;;1.10;;
39094;SDS011;24840;47.508;19.376;2022-09-21T08:38:02;2.83;;;1.00;;
39094;SDS011;24840;47.508;19.376;2022-09-21T08:40:29;1.63;;;1.17;;
39094;SDS011;24840;47.508;19.376;2022-09-21T08:49:01;5.22;;;1.40;;
39094;SDS011;24840;47.508;19.376;2022-09-21T08:51:46;1.70;;;1.17;;
39094;SDS011;24840;47.508;19.376;2022-09-21T08:54:17;3.72;;;1.20;;
39094;SDS011;24840;47.508;19.376;2022-09-21T08:56:51;2.35;;;0.93;;
39094;SDS011;24840;47.508;19.376;2022-09-21T08:59:18;1.75;;;1.00;;
39094;SDS011;24840;47.508;19.376;2022-09-21T09:07:20;2.70;;;1.05;;
39094;SDS011;24840;47.508;19.376;2022-09-21T09:13:07;1.60;;;1.00;;
39094;SDS011;24840;47.508;19.376;2022-09-21T09:21:43;1.27;;;1.00;;
39094;SDS011;24840;47.508;19.376;2022-09-21T09:26:24;0.95;;;0.80;;
39094;SDS011;24840;47.508;19.376;2022-09-21T09:29:21;1.50;;;0.90;;
39094;SDS011;24840;47.508;19.376;2022-09-21T09:32:15;1.88;;;1.20;;
39094;SDS011;24840;47.508;19.376;2022-09-21T09:34:54;1.33;;;0.85;;
39094;SDS011;24840;47.508;19.376;2022-09-21T09:40:53;0.90;;;0.75;;
39094;SDS011;24840;47.508;19.376;2022-09-21T09:44:00;2.17;;;0.88;;
39094;SDS011;24840;47.508;19.376;2022-09-21T09:49:58;1.52;;;1.00;;
39094;SDS011;24840;47.508;19.376;2022-09-21T09:52:27;1.65;;;0.73;;
39094;SDS011;24840;47.508;19.376;2022-09-21T09:54:54;1.88;;;0.68;;
39094;SDS011;24840;47.508;19.376;2022-09-21T09:57:23;0.65;;;0.65;;
39094;SDS011;24840;47.508;19.376;2022-09-21T09:59:57;1.85;;;0.82;;
39094;SDS011;24840;47.508;19.376;2022-09-21T10:02:27;1.08;;;0.80;;
39094;SDS011;24840;47.508;19.376;2022-09-21T10:10:03;2.20;;;0.98;;
39094;SDS011;24840;47.508;19.376;2022-09-21T10:12:48;1.35;;;0.80;;
39094;SDS011;24840;47.508;19.376;2022-09-21T10:15:17;1.55;;;1.08;;
39094;SDS011;24840;47.508;19.376;2022-09-21T10:17:45;1.60;;;0.80;;
39094;SDS011;24840;47.508;19.376;2022-09-21T10:20:16;1.00;;;0.77;;
39094;SDS011;24840;47.508;19.376;2022-09-21T10:22:45;1.20;;;0.90;;
39094;SDS011;24840;47.508;19.376;2022-09-21T10:25:19;1.90;;;1.00;;
39094;SDS011;24840;47.508;19.376;2022-09-21T10:27:46;2.65;;;2.25;;
39094;SDS011;24840;47.508;19.376;2022-09-21T10:30:33;1.52;;;0.68;;
39094;SDS011;24840;47.508;19.376;2022-09-21T10:33:46;3.25;;;1.48;;
39094;SDS011;24840;47.508;19.376;2022-09-21T10:36:24;1.63;;;0.80;;
39094;SDS011;24840;47.508;19.376;2022-09-21T10:38:52;1.05;;;0.70;;
39094;SDS011;24840;47.508;19.376;2022-09-21T10:41:19;1.40;;;0.95;;
39094;SDS011;24840;47.508;19.376;2022-09-21T10:43:50;1.10;;;0.80;;
39094;SDS011;24840;47.508;19.376;2022-09-21T10:46:30;0.90;;;0.77;;
39094;SDS011;24840;47.508;19.376;2022-09-21T10:49:01;1.17;;;0.80;;
39094;SDS011;24840;47.508;19.376;2022-09-21T10:51:28;2.95;;;1.10;;
39094;SDS011;24840;47.508;19.376;2022-09-21T10:53:55;3.92;;;1.23;;
39094;SDS011;24840;47.508;19.376;2022-09-21T10:56:22;1.58;;;0.90;;
39094;SDS011;24840;47.508;19.376;2022-09-21T11:01:44;1.73;;;0.80;;
39094;SDS011;24840;47.508;19.376;2022-09-21T11:06:53;1.52;;;0.80;;
39094;SDS011;24840;47.508;19.376;2022-09-21T11:12:50;3.33;;;1.15;;
39094;SDS011;24840;47.508;19.376;2022-09-21T11:15:47;1.98;;;0.60;;
39094;SDS011;24840;47.508;19.376;2022-09-21T11:18:43;0.70;;;0.57;;
39094;SDS011;24840;47.508;19.376;2022-09-21T11:22:17;1.20;;;0.68;;
39094;SDS011;24840;47.508;19.376;2022-09-21T11:24:21;3.90;;;1.38;;
39094;SDS011;24840;47.508;19.376;2022-09-21T11:26:57;1.30;;;0.80;;
39094;SDS011;24840;47.508;19.376;2022-09-21T11:29:37;0.95;;;0.80;;
39094;SDS011;24840;47.508;19.376;2022-09-21T11:32:25;1.85;;;0.88;;
39094;SDS011;24840;47.508;19.376;2022-09-21T11:38:02;3.90;;;0.98;;
39094;SDS011;24840;47.508;19.376;2022-09-21T11:46:51;1.55;;;0.95;;
39094;SDS011;24840;47.508;19.376;2022-09-21T11:57:48;1.80;;;0.80;;
39094;SDS011;24840;47.508;19.376;2022-09-21T12:03:33;2.50;;;0.73;;
39094;SDS011;24840;47.508;19.376;2022-09-21T12:25:39;1.05;;;0.82;;
39094;SDS011;24840;47.508;19.376;2022-09-21T12:30:56;3.15;;;0.70;;
39094;SDS011;24840;47.508;19.376;2022-09-21T12:36:36;1.58;;;0.70;;
39094;SDS011;24840;47.508;19.376;2022-09-21T12:39:14;0.60;;;0.50;;
39094;SDS011;24840;47.508;19.376;2022-09-21T12:41:50;0.57;;;0.57;;
39094;SDS011;24840;47.508;19.376;2022-09-21T12:44:39;1.50;;;0.32;;
39094;SDS011;24840;47.508;19.376;2022-09-21T12:47:28;2.40;;;0.38;;
39094;SDS011;24840;47.508;19.376;2022-09-21T12:53:27;0.68;;;0.57;;
39094;SDS011;24840;47.508;19.376;2022-09-21T12:55:59;0.57;;;0.57;;
39094;SDS011;24840;47.508;19.376;2022-09-21T13:01:39;0.82;;;0.50;;
39094;SDS011;24840;47.508;19.376;2022-09-21T13:10:16;1.23;;;0.50;;
39094;SDS011;24840;47.508;19.376;2022-09-21T13:12:54;0.50;;;0.40;;
39094;SDS011;24840;47.508;19.376;2022-09-21T13:15:30;0.90;;;0.30;;
39094;SDS011;24840;47.508;19.376;2022-09-21T13:18:04;1.20;;;0.35;;
39094;SDS011;24840;47.508;19.376;2022-09-21T13:20:38;3.05;;;0.47;;
39094;SDS011;24840;47.508;19.376;2022-09-21T13:23:10;5.15;;;0.63;;
39094;SDS011;24840;47.508;19.376;2022-09-21T13:25:41;2.30;;;1.02;;
39094;SDS011;24840;47.508;19.376;2022-09-21T13:28:37;0.93;;;0.60;;
39094;SDS011;24840;47.508;19.376;2022-09-21T13:42:42;60.00;;;6.75;;
39094;SDS011;24840;47.508;19.376;2022-09-21T13:47:43;0.60;;;0.30;;
39094;SDS011;24840;47.508;19.376;2022-09-21T13:50:25;0.30;;;0.20;;
39094;SDS011;24840;47.508;19.376;2022-09-21T13:53:16;0.70;;;0.30;;
39094;SDS011;24840;47.508;19.376;2022-09-21T13:56:06;2.05;;;0.38;;
39094;SDS011;24840;47.508;19.376;2022-09-21T13:58:45;0.73;;;0.35;;
39094;SDS011;24840;47.508;19.376;2022-09-21T14:01:21;0.57;;;0.30;;
39094;SDS011;24840;47.508;19.376;2022-09-21T14:03:55;0.77;;;0.40;;
39094;SDS011;24840;47.508;19.376;2022-09-21T14:06:34;0.73;;;0.30;;
39094;SDS011;24840;47.508;19.376;2022-09-21T14:09:28;0.85;;;0.20;;
39094;SDS011;24840;47.508;19.376;2022-09-21T14:12:01;4.65;;;1.00;;
39094;SDS011;24840;47.508;19.376;2022-09-21T14:14:31;1.52;;;0.88;;
39094;SDS011;24840;47.508;19.376;2022-09-21T14:25:56;1.60;;;0.43;;
39094;SDS011;24840;47.508;19.376;2022-09-21T14:28:44;1.27;;;0.70;;
39094;SDS011;24840;47.508;19.376;2022-09-21T14:31:28;1.10;;;0.40;;
39094;SDS011;24840;47.508;19.376;2022-09-21T14:33:59;1.35;;;0.95;;
39094;SDS011;24840;47.508;19.376;2022-09-21T14:36:43;1.33;;;0.40;;
39094;SDS011;24840;47.508;19.376;2022-09-21T14:39:15;1.70;;;0.85;;
39094;SDS011;24840;47.508;19.376;2022-09-21T14:42:00;2.28;;;0.75;;
39094;SDS011;24840;47.508;19.376;2022-09-21T14:48:32;1.52;;;0.60;;
39094;SDS011;24840;47.508;19.376;2022-09-21T14:51:25;0.80;;;0.57;;
39094;SDS011;24840;47.508;19.376;2022-09-21T15:00:20;1.40;;;0.65;;
39094;SDS011;24840;47.508;19.376;2022-09-21T15:12:00;1.95;;;1.00;;
39094;SDS011;24840;47.508;19.376;2022-09-21T15:14:39;0.90;;;0.60;;
39094;SDS011;24840;47.508;19.376;2022-09-21T15:17:24;1.20;;;1.08;;
39094;SDS011;24840;47.508;19.376;2022-09-21T15:22:55;0.90;;;0.55;;
39094;SDS011;24840;47.508;19.376;2022-09-21T15:25:32;1.30;;;0.57;;
39094;SDS011;24840;47.508;19.376;2022-09-21T15:27:58;1.77;;;0.70;;
39094;SDS011;24840;47.508;19.376;2022-09-21T15:30:26;1.75;;;0.90;;
39094;SDS011;24840;47.508;19.376;2022-09-21T15:33:00;4.15;;;1.48;;
39094;SDS011;24840;47.508;19.376;2022-09-21T15:35:28;1.70;;;1.15;;
39094;SDS011;24840;47.508;19.376;2022-09-21T15:37:58;2.67;;;1.35;;
39094;SDS011;24840;47.508;19.376;2022-09-21T15:40:26;1.08;;;0.90;;
39094;SDS011;24840;47.508;19.376;2022-09-21T15:42:59;1.77;;;1.13;;
39094;SDS011;24840;47.508;19.376;2022-09-21T15:53:46;2.88;;;1.35;;
39094;SDS011;24840;47.508;19.376;2022-09-21T15:56:17;2.38;;;1.65;;
39094;SDS011;24840;47.508;19.376;2022-09-21T15:58:50;4.10;;;1.25;;
39094;SDS011;24840;47.508;19.376;2022-09-21T16:01:22;2.85;;;1.48;;
39094;SDS011;24840;47.508;19.376;2022-09-21T16:04:00;1.55;;;1.00;;
39094;SDS011;24840;47.508;19.376;2022-09-21T16:06:39;1.25;;;1.00;;
39094;SDS011;24840;47.508;19.376;2022-09-21T16:11:55;1.85;;;1.10;;
39094;SDS011;24840;47.508;19.376;2022-09-21T16:14:22;4.28;;;1.05;;
39094;SDS011;24840;47.508;19.376;2022-09-21T16:19:40;2.58;;;1.17;;
39094;SDS011;24840;47.508;19.376;2022-09-21T16:22:18;3.70;;;1.17;;
39094;SDS011;24840;47.508;19.376;2022-09-21T16:25:27;1.73;;;1.23;;
39094;SDS011;24840;47.508;19.376;2022-09-21T16:28:43;2.22;;;1.30;;
39094;SDS011;24840;47.508;19.376;2022-09-21T16:30:54;2.28;;;1.00;;
39094;SDS011;24840;47.508;19.376;2022-09-21T16:33:33;2.33;;;1.45;;
39094;SDS011;24840;47.508;19.376;2022-09-21T16:36:03;3.97;;;1.20;;
39094;SDS011;24840;47.508;19.376;2022-09-21T16:38:50;2.00;;;0.95;;
39094;SDS011;24840;47.508;19.376;2022-09-21T16:41:23;2.15;;;1.00;;
39094;SDS011;24840;47.508;19.376;2022-09-21T16:44:01;1.00;;;0.47;;
39094;SDS011;24840;47.508;19.376;2022-09-21T16:46:27;1.10;;;0.65;;
39094;SDS011;24840;47.508;19.376;2022-09-21T16:48:55;1.35;;;0.80;;
39094;SDS011;24840;47.508;19.376;2022-09-21T16:51:24;2.17;;;0.98;;
39094;SDS011;24840;47.508;19.376;2022-09-21T16:53:51;1.75;;;0.60;;
39094;SDS011;24840;47.508;19.376;2022-09-21T16:56:18;2.30;;;1.15;;
39094;SDS011;24840;47.508;19.376;2022-09-21T16:58:44;1.67;;;0.70;;
39094;SDS011;24840;47.508;19.376;2022-09-21T17:01:12;4.20;;;0.90;;
39094;SDS011;24840;47.508;19.376;2022-09-21T17:03:40;1.02;;;0.65;;
39094;SDS011;24840;47.508;19.376;2022-09-21T17:06:14;1.95;;;0.70;;
39094;SDS011;24840;47.508;19.376;2022-09-21T17:08:41;1.70;;;0.85;;
39094;SDS011;24840;47.508;19.376;2022-09-21T17:11:08;2.25;;;0.60;;
39094;SDS011;24840;47.508;19.376;2022-09-21T17:13:34;4.43;;;1.10;;
39094;SDS011;24840;47.508;19.376;2022-09-21T17:16:00;1.77;;;0.70;;
39094;SDS011;24840;47.508;19.376;2022-09-21T17:18:27;4.53;;;0.85;;
39094;SDS011;24840;47.508;19.376;2022-09-21T17:20:53;1.58;;;0.82;;
39094;SDS011;24840;47.508;19.376;2022-09-21T17:23:19;1.10;;;0.70;;
39094;SDS011;24840;47.508;19.376;2022-09-21T17:25:51;3.05;;;0.75;;
39094;SDS011;24840;47.508;19.376;2022-09-21T17:28:18;2.72;;;1.13;;
39094;SDS011;24840;47.508;19.376;2022-09-21T17:30:53;3.00;;;0.50;;
39094;SDS011;24840;47.508;19.376;2022-09-21T17:33:19;2.15;;;1.08;;
39094;SDS011;24840;47.508;19.376;2022-09-21T17:35:50;0.93;;;0.70;;
39094;SDS011;24840;47.508;19.376;2022-09-21T17:38:17;0.80;;;0.35;;
39094;SDS011;24840;47.508;19.376;2022-09-21T17:40:43;1.65;;;0.60;;
39094;SDS011;24840;47.508;19.376;2022-09-21T17:46:02;2.55;;;0.90;;
39094;SDS011;24840;47.508;19.376;2022-09-21T17:48:45;2.38;;;0.80;;
39094;SDS011;24840;47.508;19.376;2022-09-21T17:51:12;1.05;;;0.73;;
39094;SDS011;24840;47.508;19.376;2022-09-21T17:53:58;1.42;;;0.70;;
39094;SDS011;24840;47.508;19.376;2022-09-21T17:56:41;3.53;;;0.90;;
39094;SDS011;24840;47.508;19.376;2022-09-21T17:59:31;1.70;;;0.55;;
39094;SDS011;24840;47.508;19.376;2022-09-21T18:01:59;1.73;;;1.10;;
39094;SDS011;24840;47.508;19.376;2022-09-21T18:04:27;1.70;;;1.10;;
39094;SDS011;24840;47.508;19.376;2022-09-21T18:06:57;2.85;;;1.00;;
39094;SDS011;24840;47.508;19.376;2022-09-21T18:09:24;1.45;;;0.90;;
39094;SDS011;24840;47.508;19.376;2022-09-21T18:14:44;2.05;;;0.90;;
39094;SDS011;24840;47.508;19.376;2022-09-21T18:25:34;1.33;;;1.00;;
39094;SDS011;24840;47.508;19.376;2022-09-21T18:28:56;2.25;;;1.30;;
39094;SDS011;24840;47.508;19.376;2022-09-21T18:31:26;2.38;;;1.20;;
39094;SDS011;24840;47.508;19.376;2022-09-21T18:37:10;1.33;;;0.85;;
39094;SDS011;24840;47.508;19.376;2022-09-21T18:45:25;3.15;;;1.55;;
39094;SDS011;24840;47.508;19.376;2022-09-21T18:48:04;2.35;;;1.42;;
39094;SDS011;24840;47.508;19.376;2022-09-21T18:50:51;6.78;;;1.70;;
39094;SDS011;24840;47.508;19.376;2022-09-21T18:53:46;2.58;;;1.58;;
39094;SDS011;24840;47.508;19.376;2022-09-21T18:56:17;2.25;;;1.55;;
39094;SDS011;24840;47.508;19.376;2022-09-21T18:58:44;3.17;;;1.60;;
39094;SDS011;24840;47.508;19.376;2022-09-21T19:01:11;2.28;;;1.50;;
39094;SDS011;24840;47.508;19.376;2022-09-21T19:03:41;2.92;;;1.80;;
39094;SDS011;24840;47.508;19.376;2022-09-21T19:11:54;6.07;;;1.75;;
39094;SDS011;24840;47.508;19.376;2022-09-21T19:14:49;2.03;;;1.38;;
39094;SDS011;24840;47.508;19.376;2022-09-21T19:20:38;6.55;;;1.67;;
39094;SDS011;24840;47.508;19.376;2022-09-21T19:25:47;7.28;;;1.48;;
39094;SDS011;24840;47.508;19.376;2022-09-21T19:31:09;2.17;;;1.20;;
39094;SDS011;24840;47.508;19.376;2022-09-21T19:33:38;1.50;;;1.20;;
39094;SDS011;24840;47.508;19.376;2022-09-21T19:36:07;2.45;;;1.23;;
39094;SDS011;24840;47.508;19.376;2022-09-21T19:38:34;1.80;;;1.33;;
39094;SDS011;24840;47.508;19.376;2022-09-21T19:41:06;1.80;;;1.40;;
39094;SDS011;24840;47.508;19.376;2022-09-21T19:43:51;2.15;;;1.35;;
39094;SDS011;24840;47.508;19.376;2022-09-21T19:46:32;1.73;;;1.27;;
39094;SDS011;24840;47.508;19.376;2022-09-21T19:49:07;4.60;;;1.52;;
39094;SDS011;24840;47.508;19.376;2022-09-21T19:54:14;1.30;;;1.20;;
39094;SDS011;24840;47.508;19.376;2022-09-21T19:57:23;6.10;;;1.60;;
39094;SDS011;24840;47.508;19.376;2022-09-21T20:00:08;2.42;;;1.63;;
39094;SDS011;24840;47.508;19.376;2022-09-21T20:02:52;2.35;;;1.42;;
39094;SDS011;24840;47.508;19.376;2022-09-21T20:05:36;1.52;;;1.20;;
39094;SDS011;24840;47.508;19.376;2022-09-21T20:13:39;2.20;;;1.77;;
39094;SDS011;24840;47.508;19.376;2022-09-21T20:16:29;2.63;;;1.58;;
39094;SDS011;24840;47.508;19.376;2022-09-21T20:21:47;2.70;;;1.60;;
39094;SDS011;24840;47.508;19.376;2022-09-21T20:24:29;1.25;;;1.15;;
39094;SDS011;24840;47.508;19.376;2022-09-21T20:27:01;2.63;;;1.00;;
39094;SDS011;24840;47.508;19.376;2022-09-21T20:29:37;3.35;;;1.48;;
39094;SDS011;24840;47.508;19.376;2022-09-21T20:32:03;3.75;;;1.95;;
39094;SDS011;24840;47.508;19.376;2022-09-21T20:34:31;1.65;;;1.20;;
39094;SDS011;24840;47.508;19.376;2022-09-21T20:36:58;2.35;;;1.08;;
39094;SDS011;24840;47.508;19.376;2022-09-21T20:39:31;2.08;;;1.30;;
39094;SDS011;24840;47.508;19.376;2022-09-21T20:41:57;3.22;;;1.25;;
39094;SDS011;24840;47.508;19.376;2022-09-21T20:44:24;2.08;;;1.58;;
39094;SDS011;24840;47.508;19.376;2022-09-21T20:46:50;1.20;;;1.00;;
39094;SDS011;24840;47.508;19.376;2022-09-21T20:49:16;2.08;;;1.25;;
39094;SDS011;24840;47.508;19.376;2022-09-21T20:51:42;2.83;;;1.42;;
39094;SDS011;24840;47.508;19.376;2022-09-21T20:54:08;3.15;;;1.10;;
39094;SDS011;24840;47.508;19.376;2022-09-21T20:56:35;2.05;;;1.30;;
39094;SDS011;24840;47.508;19.376;2022-09-21T20:59:02;2.40;;;1.00;;
39094;SDS011;24840;47.508;19.376;2022-09-21T21:01:28;1.73;;;1.20;;
39094;SDS011;24840;47.508;19.376;2022-09-21T21:03:54;3.58;;;1.70;;
39094;SDS011;24840;47.508;19.376;2022-09-21T21:06:28;1.92;;;1.67;;
39094;SDS011;24840;47.508;19.376;2022-09-21T21:08:55;6.55;;;2.13;;
39094;SDS011;24840;47.508;19.376;2022-09-21T21:11:23;3.38;;;1.73;;
39094;SDS011;24840;47.508;19.376;2022-09-21T21:13:52;2.38;;;1.35;;
39094;SDS011;24840;47.508;19.376;2022-09-21T21:16:20;4.30;;;1.95;;
39094;SDS011;24840;47.508;19.376;2022-09-21T21:18:46;2.25;;;1.65;;
39094;SDS011;24840;47.508;19.376;2022-09-21T21:21:12;5.97;;;2.05;;
39094;SDS011;24840;47.508;19.376;2022-09-21T21:23:38;5.90;;;1.42;;
39094;SDS011;24840;47.508;19.376;2022-09-21T21:26:22;4.13;;;1.75;;
39094;SDS011;24840;47.508;19.376;2022-09-21T21:28:48;4.00;;;2.13;;
39094;SDS011;24840;47.508;19.376;2022-09-21T21:31:16;7.22;;;1.98;;
39094;SDS011;24840;47.508;19.376;2022-09-21T21:33:43;5.83;;;2.37;;
39094;SDS011;24840;47.508;19.376;2022-09-21T21:36:09;9.85;;;2.28;;
39094;SDS011;24840;47.508;19.376;2022-09-21T21:38:39;3.57;;;2.40;;
39094;SDS011;24840;47.508;19.376;2022-09-21T21:41:06;7.53;;;3.30;;
39094;SDS011;24840;47.508;19.376;2022-09-21T21:43:33;10.60;;;4.65;;
39094;SDS011;24840;47.508;19.376;2022-09-21T21:46:00;21.83;;;8.90;;
39094;SDS011;24840;47.508;19.376;2022-09-21T21:48:26;24.30;;;10.30;;
39094;SDS011;24840;47.508;19.376;2022-09-21T21:50:59;20.47;;;10.70;;
39094;SDS011;24840;47.508;19.376;2022-09-21T21:53:25;22.97;;;11.50;;
39094;SDS011;24840;47.508;19.376;2022-09-21T21:56:01;24.30;;;10.67;;